createdAt,value
2022-10-12T00:02:27.908Z,102052.78
2022-10-12T00:04:54.797Z,102052.47
2022-10-12T00:07:28.395Z,102053.44
2022-10-12T00:10:03.164Z,102061.00
2022-10-12T00:12:32.452Z,102066.34
2022-10-12T00:15:16.932Z,102070.69
2022-10-12T00:18:00.105Z,102072.53
2022-10-12T00:20:27.200Z,102078.66
2022-10-12T00:23:00.875Z,102077.59
2022-10-12T00:25:30.331Z,102075.44
2022-10-12T00:28:15.440Z,102081.13
2022-10-12T00:30:55.282Z,102086.47
2022-10-12T00:33:39.900Z,102089.00
2022-10-12T00:36:38.865Z,102099.50
2022-10-12T00:39:08.111Z,102099.03
2022-10-12T00:41:52.363Z,102105.22
2022-10-12T00:44:40.951Z,102110.06
2022-10-12T00:47:34.872Z,102114.19
2022-10-12T00:50:13.094Z,102103.75
2022-10-12T00:53:03.019Z,102110.19
2022-10-12T00:55:51.137Z,102116.34
2022-10-12T00:58:24.573Z,102118.19
2022-10-12T01:01:02.364Z,102118.78
2022-10-12T01:03:42.496Z,102132.81
2022-10-12T01:06:25.936Z,102132.31
2022-10-12T01:09:04.961Z,102134.50
2022-10-12T01:11:39.018Z,102135.06
2022-10-12T01:14:11.716Z,102131.56
2022-10-12T01:16:40.916Z,102135.56
2022-10-12T01:19:33.704Z,102130.25
2022-10-12T01:22:09.594Z,102136.19
2022-10-12T01:25:01.192Z,102140.06
2022-10-12T01:27:34.118Z,102128.88
2022-10-12T01:30:26.015Z,102126.78
2022-10-12T01:32:57.634Z,102138.03
2022-10-12T01:35:36.747Z,102132.00
2022-10-12T01:38:32.650Z,102130.31
2022-10-12T01:41:01.537Z,102132.25
2022-10-12T01:43:40.709Z,102123.66
2022-10-12T01:46:27.634Z,102128.97
2022-10-12T01:48:56.230Z,102130.34
2022-10-12T01:51:31.340Z,102126.34
2022-10-12T01:54:20.049Z,102120.56
2022-10-12T01:57:09.869Z,102128.19
2022-10-12T02:00:03.735Z,102122.13
2022-10-12T02:02:31.100Z,102120.78
2022-10-12T02:05:08.777Z,102121.97
2022-10-12T02:07:48.264Z,102125.81
2022-10-12T02:10:57.995Z,102119.25
2022-10-12T02:13:27.280Z,102119.66
2022-10-12T02:15:55.009Z,102115.69
2022-10-12T02:18:23.310Z,102114.00
2022-10-12T02:21:00.481Z,102110.47
2022-10-12T02:23:45.286Z,102112.66
2022-10-12T02:26:30.537Z,102104.69
2022-10-12T02:29:09.444Z,102104.53
2022-10-12T02:32:17.322Z,102104.78
2022-10-12T02:35:28.159Z,102096.69
2022-10-12T02:38:12.358Z,102094.84
2022-10-12T02:40:52.586Z,102089.13
2022-10-12T02:43:54.337Z,102091.59
2022-10-12T02:46:30.429Z,102087.06
2022-10-12T02:49:08.237Z,102078.03
2022-10-12T02:51:42.800Z,102067.63
2022-10-12T02:54:38.701Z,102063.09
2022-10-12T02:57:11.025Z,102050.31
2022-10-12T02:59:53.497Z,102046.09
2022-10-12T03:02:29.756Z,102040.06
2022-10-12T03:05:00.146Z,102031.09
2022-10-12T03:07:33.197Z,102027.38
2022-10-12T03:10:07.830Z,102018.53
2022-10-12T03:12:36.986Z,102006.72
2022-10-12T03:15:16.452Z,101989.91
2022-10-12T03:17:56.489Z,101988.81
2022-10-12T03:20:29.511Z,101979.41
2022-10-12T03:23:03.018Z,101978.50
2022-10-12T03:25:34.933Z,101971.16
2022-10-12T03:28:12.734Z,101966.78
2022-10-12T03:30:43.597Z,101959.88
2022-10-12T03:33:20.172Z,101959.03
2022-10-12T03:36:02.397Z,101954.31
2022-10-12T03:38:31.080Z,101954.41
2022-10-12T03:41:06.698Z,101956.84
2022-10-12T03:43:48.198Z,101960.78
2022-10-12T03:46:18.315Z,101962.56
2022-10-12T03:49:08.332Z,101965.84
2022-10-12T03:51:43.948Z,101966.50
2022-10-12T03:54:15.420Z,101968.09
2022-10-12T03:56:45.426Z,101973.03
2022-10-12T03:59:17.978Z,101978.53
2022-10-12T04:02:16.851Z,101976.41
2022-10-12T04:04:56.024Z,101963.25
2022-10-12T04:07:34.732Z,101958.56
2022-10-12T04:13:07.040Z,101952.34
2022-10-12T04:15:47.241Z,101950.44
2022-10-12T04:18:32.966Z,101955.75
2022-10-12T04:21:10.200Z,101954.28
2022-10-12T04:23:36.959Z,101943.03
2022-10-12T04:26:05.341Z,101933.75
2022-10-12T04:28:36.562Z,101918.91
2022-10-12T04:31:03.364Z,101913.25
2022-10-12T04:33:38.008Z,101907.94
2022-10-12T04:36:17.942Z,101888.28
2022-10-12T04:38:44.690Z,101880.72
2022-10-12T04:41:20.552Z,101879.88
2022-10-12T04:43:55.824Z,101881.16
2022-10-12T04:46:27.125Z,101882.25
2022-10-12T04:48:59.282Z,101888.50
2022-10-12T04:51:40.314Z,101886.28
2022-10-12T04:54:07.226Z,101876.03
2022-10-12T04:56:47.736Z,101873.25
2022-10-12T04:59:17.428Z,101866.63
2022-10-12T05:01:56.500Z,101866.34
2022-10-12T05:04:29.263Z,101861.84
2022-10-12T05:06:55.988Z,101856.91
2022-10-12T05:09:22.786Z,101848.22
2022-10-12T05:11:59.274Z,101850.50
2022-10-12T05:14:36.448Z,101852.44
2022-10-12T05:17:12.518Z,101854.78
2022-10-12T05:19:42.231Z,101856.13
2022-10-12T05:22:12.831Z,101851.63
2022-10-12T05:24:42.625Z,101845.50
2022-10-12T05:27:34.406Z,101851.91
2022-10-12T05:30:03.160Z,101843.38
2022-10-12T05:35:40.997Z,101855.88
2022-10-12T05:38:19.194Z,101848.59
2022-10-12T05:40:49.999Z,101844.31
2022-10-12T05:43:21.445Z,101840.03
2022-10-12T05:46:14.597Z,101831.59
2022-10-12T05:48:41.401Z,101849.34
2022-10-12T05:51:33.496Z,101839.94
2022-10-12T05:54:24.943Z,101841.75
2022-10-12T05:57:00.480Z,101837.69
2022-10-12T05:59:46.463Z,101837.13
2022-10-12T06:10:53.932Z,101805.78
2022-10-12T06:13:30.006Z,101805.34
2022-10-12T06:19:28.908Z,101800.44
2022-10-12T06:25:54.413Z,101801.75
2022-10-12T06:28:21.585Z,101794.78
2022-10-12T06:30:59.805Z,101804.34
2022-10-12T06:33:32.644Z,101790.38
2022-10-12T06:35:59.253Z,101778.91
2022-10-12T06:38:31.871Z,101787.03
2022-10-12T06:40:58.480Z,101778.47
2022-10-12T06:43:27.199Z,101786.31
2022-10-12T06:46:01.797Z,101784.50
2022-10-12T06:48:57.894Z,101773.59
2022-10-12T06:51:35.201Z,101770.38
2022-10-12T06:54:27.773Z,101775.81
2022-10-12T06:57:02.572Z,101763.19
2022-10-12T07:01:01.939Z,101759.88
2022-10-12T07:03:28.609Z,101744.41
2022-10-12T07:06:04.522Z,101731.19
2022-10-12T07:09:55.504Z,101714.31
2022-10-12T07:12:24.234Z,101691.81
2022-10-12T07:15:31.305Z,101685.75
2022-10-12T07:17:57.993Z,101674.25
2022-10-12T07:24:38.317Z,101629.06
2022-10-12T07:27:42.038Z,101610.91
2022-10-12T07:30:35.699Z,101611.25
2022-10-12T07:36:21.896Z,101589.44
2022-10-12T07:38:49.261Z,101571.97
2022-10-12T07:41:18.565Z,101557.63
2022-10-12T07:43:45.618Z,101548.59
2022-10-12T07:46:49.121Z,101529.59
2022-10-12T07:50:18.438Z,101519.28
2022-10-12T07:57:11.587Z,101487.97
2022-10-12T07:59:53.118Z,101461.09
2022-10-12T08:02:20.099Z,101447.06
2022-10-12T08:08:45.771Z,101430.75
2022-10-12T08:11:28.519Z,101407.34
2022-10-12T08:13:56.066Z,101395.50
2022-10-12T08:16:23.071Z,101387.50
2022-10-12T08:18:49.772Z,101385.47
2022-10-12T08:27:25.900Z,101378.75
2022-10-12T08:29:53.084Z,101380.28
2022-10-12T08:32:21.767Z,101369.56
2022-10-12T08:36:08.333Z,101364.63
2022-10-12T08:43:33.659Z,101342.63
2022-10-12T08:51:19.573Z,101331.59
2022-10-12T08:53:56.696Z,101327.41
2022-10-12T09:01:47.670Z,101322.72
2022-10-12T09:05:11.678Z,101311.56
2022-10-12T09:13:02.205Z,101302.50
2022-10-12T09:20:46.544Z,101283.94
2022-10-12T09:23:27.468Z,101294.66
2022-10-12T09:25:59.792Z,101297.16
2022-10-12T09:29:39.495Z,101289.47
2022-10-12T09:36:35.651Z,101282.44
2022-10-12T09:43:42.048Z,101267.41
2022-10-12T09:46:51.231Z,101276.94
2022-10-12T09:53:05.134Z,101262.59
2022-10-12T09:56:19.481Z,101257.31
2022-10-12T09:58:56.266Z,101249.66
2022-10-12T10:01:58.012Z,101255.38
2022-10-12T10:05:04.143Z,101244.91
2022-10-12T10:08:00.912Z,101251.38
2022-10-12T10:10:39.256Z,101246.53
2022-10-12T10:16:27.539Z,101249.59
2022-10-12T10:19:28.108Z,101231.13
2022-10-12T10:25:23.747Z,101224.59
2022-10-12T10:31:33.298Z,101230.94
2022-10-12T10:37:38.729Z,101227.09
2022-10-12T10:40:34.762Z,101225.22
2022-10-12T10:43:51.087Z,101213.22
2022-10-12T10:46:36.838Z,101200.94
2022-10-12T10:50:14.241Z,101209.34
2022-10-12T10:53:05.672Z,101192.31
2022-10-12T10:56:24.443Z,101185.03
2022-10-12T10:59:19.592Z,101178.97
2022-10-12T11:02:45.511Z,101180.44
2022-10-12T11:06:18.193Z,101179.94
2022-10-12T11:09:22.476Z,101171.31
2022-10-12T11:19:46.030Z,101157.66
2022-10-12T11:26:23.363Z,101147.97
2022-10-12T11:29:15.281Z,101148.38
2022-10-12T11:38:27.227Z,101134.72
2022-10-12T11:41:36.438Z,101122.91
2022-10-12T11:48:05.581Z,101109.50
2022-10-12T11:50:49.944Z,101105.16
2022-10-12T11:57:00.992Z,101105.47
2022-10-12T12:03:26.912Z,101109.81
2022-10-12T12:06:31.334Z,101114.25
2022-10-12T12:09:55.003Z,101110.88
2022-10-12T12:12:38.705Z,101113.00
2022-10-12T12:15:34.506Z,101108.44
2022-10-12T12:18:58.428Z,101105.63
2022-10-12T12:22:14.517Z,101098.53
2022-10-12T12:25:25.235Z,101088.31
2022-10-12T12:28:32.268Z,101093.56
2022-10-12T12:31:49.937Z,101108.66
2022-10-12T12:34:54.454Z,101106.56
2022-10-12T12:41:24.003Z,101099.56
2022-10-12T12:44:32.820Z,101113.06
2022-10-12T12:50:55.432Z,101118.28
2022-10-12T12:53:39.086Z,101129.63
2022-10-12T12:56:45.887Z,101134.22
2022-10-12T13:04:06.154Z,101121.06
2022-10-12T13:07:19.303Z,101107.75
2022-10-12T13:14:23.448Z,101102.56
2022-10-12T13:20:45.793Z,101120.47
2022-10-12T13:24:11.136Z,101127.56
2022-10-12T13:27:48.402Z,101123.66
2022-10-12T13:34:56.066Z,101121.66
2022-10-12T13:37:43.254Z,101104.88
2022-10-12T13:41:17.527Z,101098.03
2022-10-12T13:48:34.339Z,101076.78
2022-10-12T13:52:12.064Z,101071.44
2022-10-12T13:55:14.210Z,101067.84
2022-10-12T14:01:40.064Z,101054.94
2022-10-12T14:07:29.494Z,101068.28
2022-10-12T14:11:00.851Z,101075.44
2022-10-12T14:14:15.868Z,101056.59
2022-10-12T14:19:57.891Z,101065.50
2022-10-12T14:22:57.550Z,101060.88
2022-10-12T14:25:58.292Z,101056.72
2022-10-12T14:28:39.242Z,101057.75
2022-10-12T14:31:46.154Z,101051.00
2022-10-12T14:38:31.072Z,101053.38
2022-10-12T14:40:56.750Z,101046.34
2022-10-12T14:43:41.320Z,101048.66
2022-10-12T14:46:29.495Z,101058.31
2022-10-12T14:49:09.346Z,101070.34
2022-10-12T14:52:11.712Z,101080.63
2022-10-12T14:55:04.733Z,101082.56
2022-10-12T14:57:44.334Z,101072.72
2022-10-12T15:00:52.315Z,101063.03
2022-10-12T15:04:11.144Z,101055.63
2022-10-12T15:09:54.730Z,101039.63
2022-10-12T15:12:35.344Z,101039.94
2022-10-12T15:15:50.389Z,101048.38
2022-10-12T15:18:35.084Z,101070.16
2022-10-12T15:21:26.138Z,101070.50
2022-10-12T15:27:35.171Z,101095.84
2022-10-12T15:30:14.060Z,101100.56
2022-10-12T15:32:52.596Z,101107.78
2022-10-12T15:35:45.844Z,101099.63
2022-10-12T15:38:22.473Z,101095.47
2022-10-12T15:44:46.899Z,101097.41
2022-10-12T15:47:33.847Z,101100.84
2022-10-12T15:50:54.908Z,101111.22
2022-10-12T15:56:22.245Z,101120.44
2022-10-12T15:58:52.250Z,101123.47
2022-10-12T16:01:37.495Z,101140.09
2022-10-12T16:04:05.859Z,101142.88
2022-10-12T16:06:35.290Z,101145.41
2022-10-12T16:09:05.352Z,101149.81
2022-10-12T16:11:31.985Z,101152.34
2022-10-12T16:17:31.453Z,101166.97
2022-10-12T16:20:14.713Z,101180.06
2022-10-12T16:22:44.763Z,101196.03
2022-10-12T16:28:21.931Z,101210.91
2022-10-12T16:31:01.826Z,101231.16
2022-10-12T16:33:28.542Z,101234.41
2022-10-12T16:35:55.293Z,101234.63
2022-10-12T16:38:28.060Z,101246.56
2022-10-12T16:41:11.305Z,101255.63
2022-10-12T16:43:41.207Z,101271.31
2022-10-12T16:46:08.260Z,101283.69
2022-10-12T16:48:44.519Z,101303.09
2022-10-12T16:51:39.597Z,101327.47
2022-10-12T16:54:11.183Z,101354.03
2022-10-12T16:56:57.850Z,101378.09
2022-10-12T16:59:25.973Z,101399.03
2022-10-12T17:02:22.486Z,101407.53
2022-10-12T17:04:49.351Z,101427.56
2022-10-12T17:07:26.273Z,101440.06
2022-10-12T17:13:18.042Z,101466.41
2022-10-12T17:15:51.864Z,101487.97
2022-10-12T17:18:34.538Z,101499.19
2022-10-12T17:21:16.974Z,101519.16
2022-10-12T17:23:56.237Z,101539.16
2022-10-12T17:26:26.320Z,101552.25
2022-10-12T17:29:15.507Z,101570.13
2022-10-12T17:31:48.565Z,101577.31
2022-10-12T17:37:15.943Z,101589.34
2022-10-12T17:40:00.872Z,101594.00
2022-10-12T17:42:28.382Z,101597.72
2022-10-12T17:44:59.408Z,101612.91
2022-10-12T17:47:31.624Z,101614.78
2022-10-12T17:49:59.319Z,101623.63
2022-10-12T17:53:10.889Z,101623.47
2022-10-12T17:55:48.478Z,101610.47
2022-10-12T17:58:22.739Z,101605.09
2022-10-12T18:00:51.714Z,101605.53
2022-10-12T18:03:28.877Z,101613.13
2022-10-12T18:05:57.925Z,101626.09
2022-10-12T18:08:26.210Z,101624.59
2022-10-12T18:10:59.593Z,101620.84
2022-10-12T18:13:26.913Z,101630.84
2022-10-12T18:15:56.880Z,101630.94
2022-10-12T18:18:27.770Z,101628.47
2022-10-12T18:21:00.186Z,101632.94
2022-10-12T18:23:41.117Z,101631.53
2022-10-12T18:28:56.327Z,101643.56
2022-10-12T18:31:28.090Z,101650.44
2022-10-12T18:33:58.184Z,101662.53
2022-10-12T18:36:26.990Z,101655.78
2022-10-12T18:38:53.999Z,101670.25
2022-10-12T18:41:48.156Z,101678.31
2022-10-12T18:44:22.194Z,101680.34
2022-10-12T18:46:58.180Z,101676.69
2022-10-12T18:49:24.979Z,101669.16
2022-10-12T18:52:26.602Z,101672.84
2022-10-12T18:54:53.924Z,101675.53
2022-10-12T18:57:31.571Z,101683.06
2022-10-12T19:00:01.867Z,101678.56
2022-10-12T19:02:41.279Z,101680.72
2022-10-12T19:05:36.068Z,101685.94
2022-10-12T19:08:27.731Z,101674.91
2022-10-12T19:11:06.602Z,101673.56
2022-10-12T19:13:37.146Z,101651.31
2022-10-12T19:19:13.336Z,101652.03
2022-10-12T19:21:53.526Z,101643.81
2022-10-12T19:24:37.950Z,101637.47
2022-10-12T19:27:16.922Z,101635.13
2022-10-12T19:30:01.110Z,101629.09
2022-10-12T19:35:36.081Z,101624.25
2022-10-12T19:38:10.090Z,101607.69
2022-10-12T19:40:39.771Z,101595.31
2022-10-12T19:43:12.000Z,101591.81
2022-10-12T19:45:59.597Z,101594.16
2022-10-12T19:48:36.857Z,101575.41
2022-10-12T19:51:29.244Z,101564.03
2022-10-12T19:54:03.749Z,101546.81
2022-10-12T19:57:21.626Z,101534.91
2022-10-12T20:00:04.695Z,101541.28
2022-10-12T20:02:48.135Z,101534.44
2022-10-12T20:05:28.361Z,101529.88
2022-10-12T20:11:16.950Z,101539.94
2022-10-12T20:16:48.696Z,101538.25
2022-10-12T20:19:21.383Z,101534.41
2022-10-12T20:22:15.583Z,101530.34
2022-10-12T20:25:15.173Z,101531.97
2022-10-12T20:27:53.267Z,101531.63
2022-10-12T20:30:58.754Z,101529.91
2022-10-12T20:33:35.242Z,101544.63
2022-10-12T20:36:03.959Z,101551.84
2022-10-12T20:38:49.820Z,101550.91
2022-10-12T20:41:45.995Z,101560.94
2022-10-12T20:44:15.421Z,101568.09
2022-10-12T20:46:57.285Z,101578.47
2022-10-12T20:49:30.409Z,101601.50
2022-10-12T20:52:00.440Z,101604.31
2022-10-12T20:54:43.842Z,101607.00
2022-10-12T20:57:30.962Z,101607.47
2022-10-12T21:00:32.783Z,101603.59
2022-10-12T21:03:01.627Z,101615.44
2022-10-12T21:05:53.713Z,101624.38
2022-10-12T21:08:28.059Z,101633.06
2022-10-12T21:10:56.838Z,101645.59
2022-10-12T21:13:52.938Z,101646.06
2022-10-12T21:16:39.689Z,101658.38
2022-10-12T21:19:41.308Z,101665.41
2022-10-12T21:24:48.584Z,101659.78
2022-10-12T21:27:22.516Z,101665.59
2022-10-12T21:29:59.158Z,101664.81
2022-10-12T21:32:30.091Z,101664.38
2022-10-12T21:35:11.775Z,101673.66
2022-10-12T21:37:45.661Z,101683.19
2022-10-12T21:40:42.752Z,101689.53
2022-10-12T21:43:17.376Z,101700.81
2022-10-12T21:45:46.810Z,101713.06
2022-10-12T21:48:26.223Z,101711.06
2022-10-12T21:51:30.541Z,101719.78
2022-10-12T21:54:14.570Z,101724.16
2022-10-12T21:56:58.913Z,101731.94
2022-10-12T21:59:48.464Z,101721.44
2022-10-12T22:02:45.311Z,101728.78
2022-10-12T22:05:50.495Z,101715.59
2022-10-12T22:11:56.316Z,101698.69
2022-10-12T22:14:22.939Z,101688.13
2022-10-12T22:16:57.164Z,101685.53
2022-10-12T22:19:33.358Z,101668.84
2022-10-12T22:22:24.612Z,101653.22
2022-10-12T22:24:58.466Z,101625.84
2022-10-12T22:27:42.906Z,101609.91
2022-10-12T22:30:46.606Z,101603.88
2022-10-12T22:33:34.576Z,101586.50
2022-10-12T22:36:08.323Z,101581.22
2022-10-12T22:38:41.276Z,101574.69
2022-10-12T22:41:22.116Z,101566.13
2022-10-12T22:47:28.411Z,101568.00
2022-10-12T22:50:34.270Z,101553.94
2022-10-12T22:53:07.465Z,101546.91
2022-10-12T22:55:40.635Z,101548.22
2022-10-12T22:59:11.216Z,101557.66
2022-10-12T23:01:46.517Z,101565.47
2022-10-12T23:04:17.671Z,101564.13
2022-10-12T23:06:59.943Z,101558.25
2022-10-12T23:09:30.021Z,101556.41
2022-10-12T23:12:16.849Z,101557.75
2022-10-12T23:14:50.867Z,101556.13
2022-10-12T23:17:17.517Z,101565.53
2022-10-12T23:20:02.055Z,101562.88
2022-10-12T23:22:31.457Z,101567.78
2022-10-12T23:25:04.830Z,101571.47
2022-10-12T23:27:49.771Z,101561.75
2022-10-12T23:30:19.611Z,101554.28
2022-10-12T23:33:59.857Z,101538.91
2022-10-12T23:36:39.018Z,101528.56
2022-10-12T23:39:52.302Z,101500.94
2022-10-12T23:43:04.892Z,101489.28
2022-10-12T23:45:35.190Z,101472.22
2022-10-12T23:48:16.271Z,101457.50
2022-10-12T23:53:40.204Z,101447.47
2022-10-12T23:56:42.048Z,101452.31
2022-10-12T23:59:22.254Z,101453.19
